Time;durP1;ratioP1;P1;durP2;ratioP2;P2;SDS_P1;SDS_P2;PMS_P1;PMS_P2;Temp;Humidity;BMP_temperature;BMP_pressure;BME280_temperature;BME280_humidity;BME280_pressure;Samples;Min_cycle;Max_cycle;Signal;HPM_P1;HPM_P2
2023/10/10 00:02:18;;;;;;;7.63;2.70;;;;;;;;;;5102402;28;20056;-66
2023/10/10 00:04:47;;;;;;;5.70;2.53;;;;;;;;;;5111742;27;20126;-65
2023/10/10 00:07:15;;;;;;;4.57;2.35;;;;;;;;;;5112287;28;20058;-67
2023/10/10 00:09:44;;;;;;;4.75;2.17;;;;;;;;;;5109938;28;20051;-65
2023/10/10 00:12:17;;;;;;;9.23;2.50;;;;;;;;;;5109230;27;20542;-66
2023/10/10 00:14:48;;;;;;;;;;;;;;;;;;5104648;27;20044;-64
2023/10/10 00:17:20;;;;;;;8.32;2.30;;;;;;;;;;5112641;27;20393;-66
2023/10/10 00:19:55;;;;;;;6.80;2.50;;;;;;;;;;5101109;27;20640;-67
2023/10/10 00:22:33;;;;;;;9.55;2.35;;;;;;;;;;5103030;27;20079;-67
2023/10/10 00:25:04;;;;;;;3.90;2.40;;;;;;;;;;5107687;28;20071;-66
2023/10/10 00:27:32;;;;;;;4.28;2.45;;;;;;;;;;5102386;27;20392;-66
2023/10/10 00:30:02;;;;;;;3.80;2.40;;;;;;;;;;5109984;27;20051;-66
2023/10/10 00:32:35;;;;;;;5.05;2.80;;;;;;;;;;5112732;27;20080;-67
2023/10/10 00:35:06;;;;;;;7.45;2.97;;;;;;;;;;5103484;28;20044;-66
2023/10/10 00:37:34;;;;;;;6.00;3.22;;;;;;;;;;5104603;27;20056;-68
2023/10/10 00:40:08;;;;;;;5.20;2.92;;;;;;;;;;5104813;27;20070;-67
2023/10/10 00:42:40;;;;;;;7.07;3.17;;;;;;;;;;5104858;28;20549;-66
2023/10/10 00:45:10;;;;;;;7.63;3.00;;;;;;;;;;5102499;28;20051;-66
2023/10/10 00:47:42;;;;;;;7.60;3.33;;;;;;;;;;5096149;28;20803;-66
2023/10/10 00:50:15;;;;;;;8.68;3.80;;;;;;;;;;5099203;27;20047;-68
2023/10/10 00:52:43;;;;;;;8.35;3.20;;;;;;;;;;5109426;27;20059;-69
2023/10/10 00:55:11;;;;;;;7.50;3.40;;;;;;;;;;5097293;28;20047;-67
2023/10/10 00:57:39;;;;;;;6.60;2.97;;;;;;;;;;5108479;27;20043;-67
2023/10/10 01:00:15;;;;;;;4.55;2.83;;;;;;;;;;5113023;27;20047;-66
2023/10/10 01:02:43;;;;;;;6.15;2.88;;;;;;;;;;5101412;28;20052;-67
2023/10/10 01:05:13;;;;;;;7.75;3.15;;;;;;;;;;5112003;27;20096;-67
2023/10/10 01:07:40;;;;;;;5.50;3.00;;;;;;;;;;5101565;28;20044;-67
2023/10/10 01:10:12;;;;;;;7.20;3.00;;;;;;;;;;5107226;28;20070;-66
2023/10/10 01:12:40;;;;;;;5.78;3.03;;;;;;;;;;5107079;27;20157;-68
2023/10/10 01:15:14;;;;;;;11.13;2.97;;;;;;;;;;5109510;27;20047;-67
2023/10/10 01:17:42;;;;;;;8.45;2.97;;;;;;;;;;5104108;28;20126;-66
2023/10/10 01:20:18;;;;;;;6.22;2.95;;;;;;;;;;5104922;28;20048;-66
2023/10/10 01:22:47;;;;;;;6.35;2.88;;;;;;;;;;5115448;27;20051;-66
2023/10/10 01:28:05;;;;;;;4.97;3.22;;;;;;;;;;5104228;28;20040;-67
2023/10/10 01:30:56;;;;;;;6.03;2.88;;;;;;;;;;5109121;28;20040;-67
2023/10/10 01:33:24;;;;;;;6.82;3.13;;;;;;;;;;5109669;28;20494;-66
2023/10/10 01:35:55;;;;;;;7.13;3.10;;;;;;;;;;5109660;28;20043;-68
2023/10/10 01:38:41;;;;;;;7.85;3.45;;;;;;;;;;5104708;28;20119;-66
2023/10/10 01:41:15;;;;;;;10.85;3.33;;;;;;;;;;5110568;28;20168;-66
2023/10/10 01:43:46;;;;;;;8.10;3.40;;;;;;;;;;5105995;28;20123;-68
2023/10/10 01:46:27;;;;;;;6.13;3.50;;;;;;;;;;5098829;28;20056;-67
2023/10/10 01:48:55;;;;;;;8.63;3.25;;;;;;;;;;5106939;28;20047;-66
2023/10/10 01:51:24;;;;;;;6.25;3.40;;;;;;;;;;5106332;28;20415;-67
2023/10/10 01:53:55;;;;;;;6.78;3.35;;;;;;;;;;5095577;28;20043;-67
2023/10/10 01:56:26;;;;;;;8.13;3.80;;;;;;;;;;5109262;28;20112;-67
2023/10/10 01:58:54;;;;;;;8.23;3.58;;;;;;;;;;5110551;28;20546;-68
2023/10/10 02:01:23;;;;;;;6.30;3.65;;;;;;;;;;5114373;27;20048;-67
2023/10/10 02:03:53;;;;;;;6.72;3.60;;;;;;;;;;5108661;27;20047;-66
2023/10/10 02:06:24;;;;;;;9.82;3.97;;;;;;;;;;5112336;28;20414;-67
2023/10/10 02:08:54;;;;;;;5.97;3.45;;;;;;;;;;5111838;28;20079;-66
2023/10/10 02:11:22;;;;;;;7.03;3.80;;;;;;;;;;5107691;28;20054;-67
2023/10/10 02:13:50;;;;;;;11.07;3.97;;;;;;;;;;5107887;28;20056;-67
2023/10/10 02:16:18;;;;;;;6.72;3.95;;;;;;;;;;5109956;27;20387;-67
2023/10/10 02:18:51;;;;;;;9.00;4.38;;;;;;;;;;5105464;27;20047;-67
2023/10/10 02:21:31;;;;;;;8.80;4.30;;;;;;;;;;5111271;28;20113;-67
2023/10/10 02:24:12;;;;;;;10.10;4.70;;;;;;;;;;5113855;27;20786;-67
2023/10/10 02:26:40;;;;;;;8.32;4.40;;;;;;;;;;5111470;28;20482;-66
2023/10/10 02:32:08;;;;;;;9.05;4.13;;;;;;;;;;5110974;28;20045;-67
2023/10/10 02:34:36;;;;;;;8.10;4.00;;;;;;;;;;5107622;28;20048;-67
2023/10/10 02:37:13;;;;;;;7.55;4.32;;;;;;;;;;5113202;28;20440;-67
2023/10/10 02:39:48;;;;;;;8.20;3.97;;;;;;;;;;5112787;27;20455;-68
2023/10/10 02:42:19;;;;;;;6.50;4.18;;;;;;;;;;5114361;28;20051;-66
2023/10/10 02:44:52;;;;;;;10.07;4.45;;;;;;;;;;5113178;27;20056;-66
2023/10/10 02:47:30;;;;;;;;;;;;;;;;;;5113331;27;20441;-67
2023/10/10 02:50:01;;;;;;;13.02;4.85;;;;;;;;;;5110172;28;19953;-66
2023/10/10 02:52:28;;;;;;;8.27;4.15;;;;;;;;;;5112694;28;20432;-66
2023/10/10 02:54:57;;;;;;;10.38;5.03;;;;;;;;;;5109577;28;20077;-66
2023/10/10 02:57:34;;;;;;;9.38;4.35;;;;;;;;;;5108852;28;20044;-66
2023/10/10 03:02:49;;;;;;;9.80;4.88;;;;;;;;;;5111324;27;20056;-67
2023/10/10 03:05:20;;;;;;;11.77;5.03;;;;;;;;;;5111494;28;20112;-67
2023/10/10 03:07:51;;;;;;;9.85;4.65;;;;;;;;;;5113625;27;20126;-66
2023/10/10 03:10:22;;;;;;;7.10;4.53;;;;;;;;;;5107642;28;20079;-66
2023/10/10 03:12:51;;;;;;;9.73;5.28;;;;;;;;;;5109610;27;20058;-66
2023/10/10 03:15:28;;;;;;;12.18;5.20;;;;;;;;;;5104752;28;20126;-68
2023/10/10 03:18:14;;;;;;;12.02;5.70;;;;;;;;;;5107762;28;20056;-69
2023/10/10 03:21:05;;;;;;;14.90;5.53;;;;;;;;;;5110423;28;20043;-67
2023/10/10 03:23:34;;;;;;;10.25;5.43;;;;;;;;;;5110116;28;20066;-66
2023/10/10 03:26:06;;;;;;;13.52;6.00;;;;;;;;;;5109147;28;20043;-66
2023/10/10 03:28:40;;;;;;;15.85;6.68;;;;;;;;;;5107987;28;20044;-67
2023/10/10 03:31:10;;;;;;;13.02;5.85;;;;;;;;;;5111896;27;20108;-67
2023/10/10 03:33:43;;;;;;;14.27;6.50;;;;;;;;;;5112009;27;20497;-67
2023/10/10 03:36:38;;;;;;;17.25;6.70;;;;;;;;;;5112853;28;20113;-67
2023/10/10 03:39:21;;;;;;;15.18;6.72;;;;;;;;;;5108579;27;20506;-66
2023/10/10 05:24:12;;;;;;;34.20;13.43;;;;;;;;;;5103341;28;20138;-67
2023/10/10 05:26:46;;;;;;;37.22;13.35;;;;;;;;;;5107177;27;20051;-67
2023/10/10 05:29:13;;;;;;;37.25;13.52;;;;;;;;;;5109859;28;20541;-67
2023/10/10 05:31:44;;;;;;;38.58;14.75;;;;;;;;;;5112110;27;20101;-67
2023/10/10 05:34:14;;;;;;;43.97;15.45;;;;;;;;;;5106844;27;20462;-67
2023/10/10 05:36:44;;;;;;;46.50;16.30;;;;;;;;;;5108267;28;20139;-67
2023/10/10 05:39:17;;;;;;;44.28;16.20;;;;;;;;;;5107495;28;20047;-67
2023/10/10 05:41:44;;;;;;;50.75;17.13;;;;;;;;;;5111955;27;20069;-67
2023/10/10 05:44:13;;;;;;;50.78;17.48;;;;;;;;;;5110707;28;20058;-67
2023/10/10 05:46:40;;;;;;;44.08;18.23;;;;;;;;;;5108975;28;20051;-67
2023/10/10 05:49:09;;;;;;;54.40;18.88;;;;;;;;;;5111938;28;20128;-67
2023/10/10 05:51:36;;;;;;;46.05;18.25;;;;;;;;;;5109281;28;20051;-67
2023/10/10 05:54:07;;;;;;;55.60;18.23;;;;;;;;;;5106279;28;20043;-67
2023/10/10 05:56:35;;;;;;;46.72;18.33;;;;;;;;;;5110669;28;20044;-67
2023/10/10 05:59:03;;;;;;;52.05;18.17;;;;;;;;;;5111839;28;20044;-66
2023/10/10 06:01:32;;;;;;;47.88;17.38;;;;;;;;;;5107317;28;20132;-67
2023/10/10 06:03:59;;;;;;;46.15;18.02;;;;;;;;;;5109890;28;20097;-67
2023/10/10 06:06:28;;;;;;;42.70;17.05;;;;;;;;;;5107033;28;20040;-66
2023/10/10 06:09:00;;;;;;;47.05;17.40;;;;;;;;;;5105788;28;20513;-67
2023/10/10 06:11:29;;;;;;;51.53;17.85;;;;;;;;;;5102214;28;20054;-68
2023/10/10 06:13:57;;;;;;;43.97;17.02;;;;;;;;;;5106749;28;20078;-66
2023/10/10 06:16:25;;;;;;;40.47;16.90;;;;;;;;;;5097801;28;20518;-69
2023/10/10 06:18:52;;;;;;;42.85;16.40;;;;;;;;;;5106372;28;20047;-68
2023/10/10 06:21:20;;;;;;;47.38;17.60;;;;;;;;;;5101530;28;20048;-67
2023/10/10 06:23:49;;;;;;;51.13;17.88;;;;;;;;;;5105277;28;20070;-68
2023/10/10 06:26:21;;;;;;;50.28;17.63;;;;;;;;;;5105614;28;20120;-66
2023/10/10 06:28:53;;;;;;;51.40;18.08;;;;;;;;;;5104816;28;20593;-68
2023/10/10 06:31:21;;;;;;;48.88;17.77;;;;;;;;;;5108742;28;20071;-68
2023/10/10 06:33:50;;;;;;;49.33;18.40;;;;;;;;;;5108048;28;20502;-67
2023/10/10 06:36:33;;;;;;;52.67;18.15;;;;;;;;;;5106681;28;20052;-67
2023/10/10 06:39:18;;;;;;;41.20;17.07;;;;;;;;;;5104027;28;20052;-67
2023/10/10 06:41:50;;;;;;;55.05;18.58;;;;;;;;;;5103292;28;20483;-67
2023/10/10 06:44:31;;;;;;;56.30;18.85;;;;;;;;;;5108403;28;20506;-66
2023/10/10 06:46:59;;;;;;;53.80;18.20;;;;;;;;;;5112103;27;20127;-67
2023/10/10 06:49:43;;;;;;;56.55;19.90;;;;;;;;;;5106043;28;20047;-67
2023/10/10 06:52:10;;;;;;;;;;;;;;;;;;5104172;27;20051;-66
2023/10/10 06:54:44;;;;;;;50.90;18.98;;;;;;;;;;5103776;27;20310;-67
2023/10/10 06:57:17;;;;;;;54.17;20.98;;;;;;;;;;5111441;27;20050;-66
2023/10/10 06:59:46;;;;;;;54.35;20.88;;;;;;;;;;5116916;27;20418;-67
2023/10/10 07:02:21;;;;;;;51.83;20.83;;;;;;;;;;5115074;27;20051;-67
2023/10/10 07:04:53;;;;;;;54.20;20.95;;;;;;;;;;5107824;28;20470;-68
2023/10/10 07:07:21;;;;;;;49.53;20.85;;;;;;;;;;5110349;27;20401;-67
2023/10/10 07:09:57;;;;;;;62.38;22.38;;;;;;;;;;5107763;28;20093;-67
2023/10/10 07:12:28;;;;;;;60.85;21.60;;;;;;;;;;5116411;27;20039;-66
2023/10/10 07:15:00;;;;;;;59.67;23.17;;;;;;;;;;5114432;27;20638;-67
2023/10/10 07:17:28;;;;;;;64.50;22.77;;;;;;;;;;5112069;28;20048;-67
2023/10/10 07:22:36;;;;;;;53.50;21.17;;;;;;;;;;5091841;27;20075;-67
2023/10/10 07:25:07;;;;;;;56.03;22.77;;;;;;;;;;5115637;27;20040;-66
2023/10/10 07:27:35;;;;;;;45.67;21.55;;;;;;;;;;5112497;27;20048;-67
2023/10/10 07:30:16;;;;;;;51.95;20.35;;;;;;;;;;5113510;27;20055;-67
2023/10/10 07:32:43;;;;;;;52.17;21.80;;;;;;;;;;5112013;27;20424;-66
2023/10/10 07:35:15;;;;;;;47.47;20.13;;;;;;;;;;5115685;27;20478;-67
2023/10/10 07:37:43;;;;;;;46.35;20.73;;;;;;;;;;5111246;27;20047;-67
2023/10/10 07:40:20;;;;;;;51.50;20.48;;;;;;;;;;5111049;28;20049;-68
2023/10/10 07:42:50;;;;;;;42.40;19.23;;;;;;;;;;5112577;27;20053;-68
2023/10/10 07:45:33;;;;;;;42.92;20.25;;;;;;;;;;5106585;27;20051;-67
2023/10/10 07:50:48;;;;;;;40.83;19.70;;;;;;;;;;5107483;27;20494;-67
2023/10/10 07:53:16;;;;;;;45.85;21.02;;;;;;;;;;5107779;27;20517;-67
2023/10/10 07:55:59;;;;;;;42.58;20.75;;;;;;;;;;5107845;27;20052;-68
2023/10/10 07:58:29;;;;;;;48.50;21.20;;;;;;;;;;5104615;28;20044;-67
2023/10/10 08:01:08;;;;;;;46.22;20.17;;;;;;;;;;5111867;27;20043;-67
2023/10/10 08:03:35;;;;;;;40.85;19.15;;;;;;;;;;5113121;27;20132;-67
2023/10/10 08:06:08;;;;;;;40.55;20.17;;;;;;;;;;5111171;27;20047;-67
2023/10/10 08:08:36;;;;;;;45.13;20.83;;;;;;;;;;5108233;28;20132;-68
2023/10/10 08:11:12;;;;;;;47.92;20.45;;;;;;;;;;5116887;27;20047;-67
2023/10/10 08:13:41;;;;;;;44.95;18.92;;;;;;;;;;5112123;27;20506;-68
2023/10/10 08:16:19;;;;;;;38.63;19.88;;;;;;;;;;5121358;27;20051;-67
2023/10/10 08:19:04;;;;;;;37.58;19.20;;;;;;;;;;5114809;27;20078;-67
2023/10/10 08:21:36;;;;;;;43.13;19.77;;;;;;;;;;5111278;27;20044;-67
2023/10/10 08:24:03;;;;;;;45.47;20.13;;;;;;;;;;5118754;27;20048;-68
2023/10/10 08:26:38;;;;;;;39.67;20.05;;;;;;;;;;5104420;28;20413;-66
2023/10/10 08:29:07;;;;;;;40.50;19.42;;;;;;;;;;5104218;28;20486;-69
2023/10/10 08:31:37;;;;;;;41.72;20.85;;;;;;;;;;5111591;27;20108;-67
2023/10/10 08:34:05;;;;;;;40.33;19.75;;;;;;;;;;5111898;27;20043;-68
2023/10/10 08:36:32;;;;;;;41.85;19.83;;;;;;;;;;5110799;27;20059;-66
2023/10/10 08:39:11;;;;;;;40.60;20.27;;;;;;;;;;5108096;28;20048;-66
2023/10/10 08:41:39;;;;;;;51.00;21.23;;;;;;;;;;5107726;27;20577;-67
2023/10/10 08:44:09;;;;;;;41.85;19.63;;;;;;;;;;5111701;27;20040;-67
2023/10/10 08:46:46;;;;;;;42.45;19.48;;;;;;;;;;5109012;27;20054;-66
2023/10/10 08:49:13;;;;;;;41.10;19.50;;;;;;;;;;5107622;27;20047;-69
2023/10/10 08:51:41;;;;;;;41.40;19.50;;;;;;;;;;5111019;28;20047;-68
2023/10/10 08:54:10;;;;;;;37.85;19.67;;;;;;;;;;5104055;28;20052;-67
2023/10/10 08:56:38;;;;;;;38.63;19.45;;;;;;;;;;5107117;27;20054;-66
2023/10/10 08:59:06;;;;;;;42.90;20.00;;;;;;;;;;5110389;27;20074;-67
2023/10/10 09:01:35;;;;;;;40.75;19.58;;;;;;;;;;5109908;28;20136;-66
2023/10/10 09:04:05;;;;;;;40.95;20.02;;;;;;;;;;5106074;28;20046;-67
2023/10/10 09:06:43;;;;;;;44.38;19.58;;;;;;;;;;5109208;28;20052;-67
2023/10/10 09:11:53;;;;;;;40.03;19.90;;;;;;;;;;5108344;28;20100;-67
2023/10/10 09:14:20;;;;;;;40.00;19.23;;;;;;;;;;5109957;28;20465;-66
2023/10/10 09:16:47;;;;;;;34.50;19.10;;;;;;;;;;5109918;28;20446;-67
2023/10/10 09:19:17;;;;;;;36.05;18.65;;;;;;;;;;5119848;27;20058;-67
2023/10/10 09:21:50;;;;;;;34.55;18.63;;;;;;;;;;5107731;28;20043;-66
2023/10/10 09:24:28;;;;;;;37.88;18.90;;;;;;;;;;5117493;27;20074;-68
2023/10/10 09:27:10;;;;;;;39.40;19.10;;;;;;;;;;5109053;28;20470;-67
2023/10/10 09:29:46;;;;;;;32.85;19.02;;;;;;;;;;5105835;28;20044;-67
2023/10/10 09:32:14;;;;;;;36.38;19.00;;;;;;;;;;5110147;27;20517;-69
2023/10/10 09:34:43;;;;;;;36.17;18.63;;;;;;;;;;5114360;27;20048;-67
2023/10/10 09:37:17;;;;;;;42.28;20.13;;;;;;;;;;5111149;27;20044;-67
2023/10/10 09:39:54;;;;;;;36.63;18.90;;;;;;;;;;5109483;27;20044;-67
2023/10/10 09:42:44;;;;;;;40.58;18.90;;;;;;;;;;5110426;27;20448;-67
2023/10/10 09:45:27;;;;;;;38.47;19.50;;;;;;;;;;5110024;28;20043;-68
2023/10/10 09:47:56;;;;;;;38.08;19.13;;;;;;;;;;5109292;28;20450;-66
2023/10/10 09:50:45;;;;;;;39.92;19.15;;;;;;;;;;5107190;28;20058;-67
2023/10/10 09:53:21;;;;;;;42.05;19.85;;;;;;;;;;5114752;27;20081;-67
2023/10/10 09:55:53;;;;;;;41.45;19.55;;;;;;;;;;5106005;28;20035;-66
2023/10/10 09:58:30;;;;;;;42.13;19.90;;;;;;;;;;5117831;27;20052;-67
2023/10/10 10:01:14;;;;;;;39.88;19.17;;;;;;;;;;5112772;28;20390;-67
2023/10/10 10:03:49;;;;;;;36.15;19.27;;;;;;;;;;5121790;27;20086;-68
2023/10/10 10:06:35;;;;;;;39.13;20.10;;;;;;;;;;5116968;28;20126;-68
2023/10/10 10:09:17;;;;;;;36.90;19.67;;;;;;;;;;5107471;27;20048;-67
2023/10/10 10:11:52;;;;;;;37.25;19.25;;;;;;;;;;5109976;28;20107;-67
2023/10/10 10:14:23;;;;;;;33.85;18.30;;;;;;;;;;5115151;28;20050;-68
2023/10/10 10:16:55;;;;;;;34.92;20.00;;;;;;;;;;5109453;28;20499;-68
2023/10/10 10:19:28;;;;;;;35.47;18.75;;;;;;;;;;5110178;28;20469;-67
2023/10/10 10:22:08;;;;;;;35.83;19.55;;;;;;;;;;5112808;28;20087;-67
2023/10/10 10:25:07;;;;;;;37.05;19.33;;;;;;;;;;5109807;28;20070;-68
2023/10/10 10:27:39;;;;;;;32.95;18.58;;;;;;;;;;5106780;27;20135;-67
2023/10/10 10:30:35;;;;;;;35.45;19.13;;;;;;;;;;5114049;27;20044;-67
2023/10/10 10:32:58;;;;;;;35.80;18.33;;;;;;;;;;5112914;28;20093;-67
2023/10/10 10:35:36;;;;;;;33.45;18.50;;;;;;;;;;5111636;28;20039;-70
2023/10/10 10:38:06;;;;;;;31.75;16.63;;;;;;;;;;5113030;28;20070;-67
2023/10/10 10:40:46;;;;;;;30.13;16.15;;;;;;;;;;5111378;28;20048;-68
2023/10/10 10:43:22;;;;;;;37.70;17.20;;;;;;;;;;5109807;28;20075;-68
2023/10/10 10:45:53;;;;;;;30.08;16.48;;;;;;;;;;5110641;28;20470;-67
2023/10/10 10:48:30;;;;;;;35.08;17.00;;;;;;;;;;5106584;28;20055;-67
2023/10/10 10:51:03;;;;;;;28.27;15.98;;;;;;;;;;5110700;28;20236;-67
2023/10/10 10:53:39;;;;;;;29.77;17.00;;;;;;;;;;5105291;28;20044;-67
2023/10/10 11:01:55;;;;;;;32.97;15.80;;;;;;;;;;5096846;27;20048;-68
2023/10/10 11:04:42;;;;;;;31.38;16.10;;;;;;;;;;5112050;27;20051;-67
2023/10/10 11:07:16;;;;;;;33.70;16.00;;;;;;;;;;5111728;27;20059;-67
2023/10/10 11:09:52;;;;;;;;;;;;;;;;;;5111357;28;20054;-69
2023/10/10 11:12:31;;;;;;;30.27;14.50;;;;;;;;;;5107455;27;19965;-68
2023/10/10 11:15:04;;;;;;;34.55;14.32;;;;;;;;;;5109382;27;20043;-68
2023/10/10 11:17:37;;;;;;;;;;;;;;;;;;5104125;27;20406;-67
2023/10/10 11:20:26;;;;;;;30.98;12.20;;;;;;;;;;5110104;27;19926;-67
2023/10/10 11:22:55;;;;;;;28.50;12.02;;;;;;;;;;5114515;27;20052;-67
2023/10/10 11:25:41;;;;;;;28.27;12.63;;;;;;;;;;5113347;27;20383;-68
2023/10/10 11:28:21;;;;;;;25.83;11.55;;;;;;;;;;5109910;27;20039;-67
2023/10/10 11:30:49;;;;;;;23.88;11.23;;;;;;;;;;5111934;27;20048;-67
2023/10/10 11:33:46;;;;;;;27.40;10.52;;;;;;;;;;5111403;28;20378;-69
2023/10/10 11:36:24;;;;;;;23.75;10.32;;;;;;;;;;5111587;28;20059;-67
2023/10/10 11:38:56;;;;;;;23.00;9.70;;;;;;;;;;5110222;27;20046;-68
2023/10/10 11:41:35;;;;;;;25.40;9.90;;;;;;;;;;5106328;28;20067;-68
2023/10/10 11:44:05;;;;;;;23.15;10.52;;;;;;;;;;5105659;28;20048;-67
2023/10/10 11:46:33;;;;;;;18.15;8.80;;;;;;;;;;5110854;27;20066;-67
2023/10/10 11:49:01;;;;;;;22.77;9.98;;;;;;;;;;5106519;27;20549;-67
2023/10/10 11:51:35;;;;;;;21.10;9.80;;;;;;;;;;5113196;28;20096;-67
2023/10/10 11:54:02;;;;;;;25.38;9.10;;;;;;;;;;5111631;27;20043;-67
2023/10/10 11:56:34;;;;;;;20.73;8.65;;;;;;;;;;5108014;28;20055;-67
2023/10/10 11:59:01;;;;;;;18.30;8.10;;;;;;;;;;5112416;28;20059;-67
2023/10/10 12:01:49;;;;;;;16.88;8.18;;;;;;;;;;5105176;28;20157;-67
2023/10/10 12:04:31;;;;;;;20.70;8.52;;;;;;;;;;5110865;28;20410;-67
2023/10/10 12:07:08;;;;;;;21.58;9.02;;;;;;;;;;5105372;28;20631;-67
2023/10/10 12:09:38;;;;;;;22.65;9.70;;;;;;;;;;5110994;28;20437;-68
2023/10/10 12:12:05;;;;;;;23.23;9.32;;;;;;;;;;5104775;27;20057;-67
2023/10/10 12:14:33;;;;;;;24.40;9.02;;;;;;;;;;5113491;27;20051;-67
2023/10/10 12:17:05;;;;;;;21.90;9.43;;;;;;;;;;5111763;28;20588;-67
2023/10/10 12:19:36;;;;;;;23.10;9.90;;;;;;;;;;5104207;28;20054;-68
2023/10/10 12:22:12;;;;;;;22.85;9.50;;;;;;;;;;5109871;28;20505;-67
2023/10/10 12:24:40;;;;;;;22.67;8.80;;;;;;;;;;5110684;27;20048;-67
2023/10/10 12:27:08;;;;;;;22.20;8.65;;;;;;;;;;5106590;28;20051;-66
2023/10/10 12:29:39;;;;;;;21.45;8.63;;;;;;;;;;5109506;27;20043;-68
2023/10/10 12:32:18;;;;;;;19.98;7.70;;;;;;;;;;5109229;28;20118;-67
2023/10/10 12:34:46;;;;;;;19.05;8.00;;;;;;;;;;5108947;28;20044;-67
2023/10/10 12:37:16;;;;;;;21.48;7.80;;;;;;;;;;5108518;28;20048;-68
2023/10/10 12:39:44;;;;;;;18.05;7.53;;;;;;;;;;5108114;27;20043;-68
2023/10/10 12:42:11;;;;;;;17.73;7.07;;;;;;;;;;5110206;27;20036;-66
2023/10/10 12:44:38;;;;;;;18.52;7.28;;;;;;;;;;5106572;28;20065;-69
2023/10/10 12:47:08;;;;;;;25.88;7.88;;;;;;;;;;5101169;28;20040;-67
2023/10/10 12:49:44;;;;;;;17.25;7.80;;;;;;;;;;5107620;28;20113;-67
2023/10/10 12:52:12;;;;;;;18.88;8.18;;;;;;;;;;5105264;28;20397;-66
2023/10/10 12:54:41;;;;;;;25.38;9.07;;;;;;;;;;5106026;28;20054;-67
2023/10/10 12:57:13;;;;;;;19.30;8.63;;;;;;;;;;5106923;28;20471;-67
2023/10/10 12:59:46;;;;;;;23.52;10.68;;;;;;;;;;5113339;27;20101;-69
2023/10/10 13:02:25;;;;;;;27.27;10.80;;;;;;;;;;5108640;28;20091;-68
2023/10/10 13:04:53;;;;;;;23.75;10.07;;;;;;;;;;5101355;28;20058;-68
2023/10/10 13:07:21;;;;;;;24.40;9.63;;;;;;;;;;5107729;28;20058;-68
2023/10/10 13:09:48;;;;;;;21.42;9.20;;;;;;;;;;5110448;28;20055;-69
2023/10/10 13:12:32;;;;;;;23.52;10.27;;;;;;;;;;5108094;28;20059;-67
2023/10/10 13:15:17;;;;;;;25.85;11.32;;;;;;;;;;5103196;28;20530;-68
2023/10/10 13:17:54;;;;;;;22.55;11.10;;;;;;;;;;5104489;28;20571;-68
2023/10/10 13:20:21;;;;;;;24.42;11.50;;;;;;;;;;5113133;27;20102;-68
2023/10/10 13:22:50;;;;;;;24.85;11.70;;;;;;;;;;5112571;27;20108;-68
2023/10/10 13:25:18;;;;;;;28.05;11.50;;;;;;;;;;5117823;27;20047;-68
2023/10/10 13:27:47;;;;;;;27.05;12.05;;;;;;;;;;5104446;27;20044;-68
2023/10/10 13:30:14;;;;;;;27.95;13.48;;;;;;;;;;5107560;27;20051;-69
2023/10/10 13:32:42;;;;;;;29.83;14.18;;;;;;;;;;5104268;28;20051;-68
2023/10/10 13:35:11;;;;;;;26.45;13.57;;;;;;;;;;5110357;27;20104;-68
2023/10/10 13:37:41;;;;;;;36.40;15.32;;;;;;;;;;5110433;28;20047;-69
2023/10/10 13:40:20;;;;;;;28.35;15.38;;;;;;;;;;5107740;28;20079;-67
2023/10/10 13:42:48;;;;;;;29.30;16.25;;;;;;;;;;5105753;28;20050;-68
2023/10/10 13:45:19;;;;;;;30.65;16.27;;;;;;;;;;5109456;28;20056;-69
2023/10/10 13:47:48;;;;;;;34.08;17.40;;;;;;;;;;5106854;28;20053;-67
2023/10/10 13:50:31;;;;;;;32.92;17.63;;;;;;;;;;5108247;28;20113;-68
2023/10/10 13:52:59;;;;;;;33.67;17.75;;;;;;;;;;5103108;28;20138;-69
2023/10/10 13:55:29;;;;;;;36.75;18.40;;;;;;;;;;5103872;28;20056;-68
2023/10/10 13:57:57;;;;;;;34.20;18.38;;;;;;;;;;5114831;28;20043;-68
2023/10/10 14:00:33;;;;;;;33.83;18.13;;;;;;;;;;5112716;28;20062;-69
2023/10/10 14:03:03;;;;;;;37.95;17.85;;;;;;;;;;5106484;28;20051;-69
2023/10/10 14:05:33;;;;;;;43.28;16.73;;;;;;;;;;5102426;28;20051;-68
2023/10/10 14:08:02;;;;;;;40.13;17.42;;;;;;;;;;5119272;27;20075;-68
2023/10/10 14:10:36;;;;;;;29.35;16.38;;;;;;;;;;5103304;28;20048;-68
2023/10/10 14:13:18;;;;;;;29.83;17.02;;;;;;;;;;5106360;28;20460;-71
2023/10/10 14:15:54;;;;;;;35.33;16.60;;;;;;;;;;5109636;28;20046;-69
2023/10/10 14:18:22;;;;;;;35.67;17.90;;;;;;;;;;5105788;28;20339;-69
2023/10/10 14:20:51;;;;;;;36.05;19.35;;;;;;;;;;5107475;28;20044;-69
2023/10/10 14:23:21;;;;;;;39.50;19.90;;;;;;;;;;5108436;28;20055;-69
2023/10/10 14:25:49;;;;;;;34.45;19.38;;;;;;;;;;5103235;28;20042;-70
2023/10/10 14:28:19;;;;;;;35.67;19.65;;;;;;;;;;5103041;28;20094;-69
2023/10/10 14:30:49;;;;;;;34.42;18.48;;;;;;;;;;5109645;28;20052;-71
2023/10/10 14:33:17;;;;;;;38.67;19.23;;;;;;;;;;5109614;28;20052;-71
2023/10/10 14:35:45;;;;;;;31.67;17.90;;;;;;;;;;5108296;28;20040;-68
2023/10/10 14:38:15;;;;;;;33.03;15.02;;;;;;;;;;5103686;28;20055;-69
2023/10/10 14:40:43;;;;;;;29.33;14.82;;;;;;;;;;5108100;28;20101;-69
2023/10/10 14:43:11;;;;;;;31.92;14.35;;;;;;;;;;5108369;28;20143;-69
2023/10/10 14:45:42;;;;;;;38.78;15.45;;;;;;;;;;5106069;28;20422;-68
2023/10/10 14:48:10;;;;;;;26.35;14.63;;;;;;;;;;5106595;28;20051;-70
2023/10/10 14:50:38;;;;;;;35.80;15.70;;;;;;;;;;5107090;28;20410;-69
2023/10/10 14:53:08;;;;;;;37.55;16.77;;;;;;;;;;5110882;28;20134;-69
2023/10/10 14:55:44;;;;;;;32.33;17.80;;;;;;;;;;5104327;28;20108;-69
2023/10/10 14:58:12;;;;;;;33.25;18.73;;;;;;;;;;5110716;28;20043;-69
2023/10/10 15:00:41;;;;;;;34.85;18.83;;;;;;;;;;5107646;28;20048;-69
2023/10/10 15:03:15;;;;;;;34.65;19.08;;;;;;;;;;5116902;28;20051;-69
2023/10/10 15:05:50;;;;;;;33.75;18.60;;;;;;;;;;5108299;28;20048;-69
2023/10/10 15:08:18;;;;;;;40.15;18.38;;;;;;;;;;5108966;28;20048;-70
2023/10/10 15:10:47;;;;;;;37.30;18.20;;;;;;;;;;5106786;28;20051;-69
2023/10/10 15:13:16;;;;;;;34.25;18.50;;;;;;;;;;5110838;28;20062;-69
2023/10/10 15:15:48;;;;;;;35.20;17.92;;;;;;;;;;5108855;28;20048;-68
2023/10/10 15:18:16;;;;;;;42.75;19.35;;;;;;;;;;5109038;28;20053;-69
2023/10/10 15:20:46;;;;;;;33.60;18.23;;;;;;;;;;5109712;28;20418;-70
2023/10/10 15:23:20;;;;;;;33.50;17.70;;;;;;;;;;5112050;28;20077;-70
2023/10/10 15:25:53;;;;;;;32.80;17.90;;;;;;;;;;5112500;28;20052;-69
2023/10/10 15:28:20;;;;;;;32.45;18.10;;;;;;;;;;5106262;28;20047;-70
2023/10/10 15:30:47;;;;;;;28.20;17.23;;;;;;;;;;5112869;28;20044;-70
2023/10/10 15:33:17;;;;;;;32.60;16.67;;;;;;;;;;5110309;28;20047;-69
2023/10/10 15:35:49;;;;;;;32.00;16.02;;;;;;;;;;5111061;28;20066;-69
2023/10/10 15:38:16;;;;;;;31.08;16.10;;;;;;;;;;5108343;28;20055;-69
2023/10/10 15:40:44;;;;;;;28.98;15.15;;;;;;;;;;5111418;28;20055;-69
2023/10/10 15:43:12;;;;;;;26.73;15.13;;;;;;;;;;5110677;28;20388;-69
2023/10/10 15:45:43;;;;;;;28.48;15.23;;;;;;;;;;5111663;28;20050;-70
2023/10/10 15:48:21;;;;;;;28.05;14.75;;;;;;;;;;5107764;28;20044;-69
2023/10/10 15:50:52;;;;;;;26.27;14.32;;;;;;;;;;5109743;28;20058;-70
2023/10/10 15:53:20;;;;;;;30.52;15.20;;;;;;;;;;5107216;28;20059;-69
2023/10/10 15:56:06;;;;;;;27.08;14.35;;;;;;;;;;5104809;28;20105;-69
2023/10/10 15:58:36;;;;;;;27.15;14.93;;;;;;;;;;5111328;28;20422;-70
2023/10/10 16:01:04;;;;;;;26.10;14.43;;;;;;;;;;5111752;28;20058;-70
2023/10/10 16:03:32;;;;;;;26.73;13.65;;;;;;;;;;5109827;28;20108;-69
2023/10/10 16:06:00;;;;;;;25.48;13.73;;;;;;;;;;5111456;28;20047;-69
2023/10/10 16:08:29;;;;;;;27.85;13.65;;;;;;;;;;5109373;28;20069;-70
2023/10/10 16:10:56;;;;;;;27.38;14.63;;;;;;;;;;5107151;27;20056;-70
2023/10/10 16:13:23;;;;;;;28.67;14.05;;;;;;;;;;5108867;28;20062;-69
2023/10/10 16:15:56;;;;;;;27.73;14.30;;;;;;;;;;5110403;27;20043;-69
2023/10/10 16:18:24;;;;;;;25.73;13.98;;;;;;;;;;5109709;27;20047;-70
2023/10/10 16:20:52;;;;;;;22.50;13.10;;;;;;;;;;5111880;28;20552;-70
2023/10/10 16:23:23;;;;;;;26.10;13.48;;;;;;;;;;5111268;27;20097;-70
2023/10/10 16:25:50;;;;;;;23.50;13.63;;;;;;;;;;5097719;28;20059;-69
2023/10/10 16:28:18;;;;;;;22.67;13.15;;;;;;;;;;5101780;27;20043;-69
2023/10/10 16:30:46;;;;;;;24.20;13.90;;;;;;;;;;5109448;28;20047;-70
2023/10/10 16:33:14;;;;;;;27.70;13.27;;;;;;;;;;5105732;27;20447;-70
2023/10/10 16:35:46;;;;;;;30.80;14.20;;;;;;;;;;5105139;28;20051;-69
2023/10/10 16:38:15;;;;;;;25.30;13.80;;;;;;;;;;5107275;28;20039;-70
2023/10/10 16:40:42;;;;;;;24.52;13.13;;;;;;;;;;5106397;28;20054;-70
2023/10/10 16:43:12;;;;;;;29.58;14.32;;;;;;;;;;5104695;28;20140;-70
2023/10/10 16:45:39;;;;;;;27.73;14.70;;;;;;;;;;5106294;28;20066;-69
2023/10/10 16:48:08;;;;;;;28.65;14.85;;;;;;;;;;5099422;28;20091;-70
2023/10/10 16:50:39;;;;;;;24.45;13.30;;;;;;;;;;5108619;28;20536;-70
2023/10/10 16:53:06;;;;;;;25.00;14.13;;;;;;;;;;5101752;28;20072;-69
2023/10/10 16:55:33;;;;;;;30.00;14.30;;;;;;;;;;5105389;28;20051;-69
2023/10/10 16:58:00;;;;;;;27.55;13.18;;;;;;;;;;5114648;27;20402;-70
2023/10/10 17:00:28;;;;;;;27.90;13.15;;;;;;;;;;5104883;27;20048;-69